Aeroporto :
LOGIN :

Iscrizione | Disclaimer

   EN    FR    IT 

 










Sommario :    VFR   VFR Marginale   IFR   IFR Intensivo   IFR Molto Intensivo
Visibilità : 
Base nubi : 
>= 8 km
>= 3000ft
5 / 8 km
1000 / 3000 ft
1500m / 5 km
500 / 1000 ft
800 / 1500m
200 / 500 ft
< 800m
< 200 ft
Simboli :   Temporali  Nebbia  Neve Forte  Precipitazioni Forti  Vento > 20 kt
SIGMETs :   Varie  Temporali  Ghiacco  Turbolenza  Onda orograficha  Ceneri Vulcaniche







- Altitudine del aeroporto : 13 ft
- Codice IATA : SNR
- Carte del aeroporto


LFRZ - St-Nazaire

ULTIMO METAR :
  • 211030Z AUTO 20009KT 180V240 9999 FEW044 22/14 Q1023 NOSIG

METARs OBSOLETI :
  • 211000Z AUTO 18009KT 9999 BKN025 BKN031 BKN037 22/15 Q1022 NOSIG
  • 210930Z AUTO 19006KT 150V250 9999 BKN025 21/15 Q1022 NOSIG
  • 210900Z AUTO 17005KT 120V230 9999 BKN022 BKN027 21/15 Q1022 NOSIG
  • 210830Z AUTO VRB03KT 9999 BKN021 BKN026 20/14 Q1022 NOSIG
  • 210800Z AUTO 23004KT 170V270 9999 BKN019 19/15 Q1022 NOSIG
  • 210730Z AUTO VRB01KT 9999 FEW011 18/16 Q1022 NOSIG

TAF TAF LFRZ
Valido dal 21 a 06 ore il 22 a 06 ore UTC


210500Z 2106/2206 VRB03KT CAVOK
BECMG 2113/2115 25010KT
Nessun NOTAM noto per questo aeroporto.



MetMap, La meteo Aeronautica in un colpo d'occhio ! - Copyright ORBIFLY Dicembre 2007 - Disclaimer

ORBIFLY MET'MAP TEAM :

Programmazione e sviluppo : Alexandra Zaïnal
Concezione e sviluppo : Baudouin d'Aumeries
Co-Programmazione e sviluppo : Marc-Olivier Méhu
Supporto tecnico e logistico : Manuel Goepfert
Aiuto per la traduzione : Arnaldo La Scala

Contatto : metmap@orbifly.com




FONTI E CREDITI :

   NOAA